createdAt,value
2019-02-27T00:01:00.413Z,87.25
2019-02-27T00:01:58.387Z,87.66
2019-02-27T00:02:59.403Z,87.84
2019-02-27T00:03:59.867Z,87.63
2019-02-27T00:04:58.425Z,87.73
2019-02-27T00:05:58.344Z,87.63
2019-02-27T00:06:58.406Z,88.29
2019-02-27T00:07:58.324Z,88.71
2019-02-27T00:09:00.473Z,87.73
2019-02-27T00:09:58.323Z,87.63
2019-02-27T00:10:58.330Z,88.99
2019-02-27T00:11:58.282Z,88.26
2019-02-27T00:12:58.347Z,87.94
2019-02-27T00:13:58.547Z,87.10
2019-02-27T00:14:58.284Z,87.25
2019-02-27T00:15:58.241Z,87.10
2019-02-27T00:16:58.282Z,87.98
2019-02-27T00:17:58.218Z,87.66
2019-02-27T00:18:58.840Z,87.66
2019-02-27T00:19:58.214Z,87.73
2019-02-27T00:20:58.299Z,87.88
2019-02-27T00:21:58.174Z,88.09
2019-02-27T00:22:58.210Z,88.19
2019-02-27T00:23:58.156Z,87.98
2019-02-27T00:24:58.248Z,88.44
2019-02-27T00:25:58.134Z,87.88
2019-02-27T00:26:58.239Z,88.02
2019-02-27T00:27:58.111Z,88.09
2019-02-27T00:28:58.149Z,88.02
2019-02-27T00:29:59.479Z,88.75
2019-02-27T00:30:59.185Z,88.40
2019-02-27T00:31:58.072Z,88.29
2019-02-27T00:32:58.072Z,88.50
2019-02-27T00:33:59.846Z,88.96
2019-02-27T00:34:58.113Z,89.07
2019-02-27T00:35:58.028Z,88.65
2019-02-27T00:36:58.100Z,88.86
2019-02-27T00:37:58.005Z,88.69
2019-02-27T00:38:58.577Z,89.22
2019-02-27T00:39:58.012Z,89.28
2019-02-27T00:40:58.025Z,89.28
2019-02-27T00:41:57.963Z,89.53
2019-02-27T00:42:58.042Z,89.84
2019-02-27T00:44:01.174Z,91.41
2019-02-27T00:45:00.024Z,91.31
2019-02-27T00:45:57.924Z,91.62
2019-02-27T00:47:04.928Z,91.62
2019-02-27T00:47:57.900Z,91.52
2019-02-27T00:48:59.927Z,91.41
2019-02-27T00:49:57.921Z,91.83
2019-02-27T00:50:57.890Z,91.41
2019-02-27T00:51:57.858Z,91.52
2019-02-27T00:52:57.910Z,91.24
2019-02-27T00:53:58.357Z,92.14
2019-02-27T00:54:57.944Z,92.57
2019-02-27T00:55:57.823Z,92.25
2019-02-27T00:56:57.827Z,92.25
2019-02-27T00:57:57.794Z,92.52
2019-02-27T00:59:00.297Z,92.67
2019-02-27T00:59:57.792Z,92.42
2019-02-27T01:00:57.858Z,92.10
2019-02-27T01:01:57.760Z,91.83
2019-02-27T01:02:57.774Z,91.16
2019-02-27T01:04:00.987Z,91.58
2019-02-27T01:04:57.812Z,91.41
2019-02-27T01:05:57.710Z,91.62
2019-02-27T01:06:57.798Z,91.41
2019-02-27T01:07:57.693Z,91.83
2019-02-27T01:08:57.711Z,91.98
2019-02-27T01:09:57.684Z,91.94
2019-02-27T01:10:57.724Z,91.46
2019-02-27T01:11:57.646Z,92.35
2019-02-27T01:12:58.690Z,92.50
2019-02-27T01:13:57.628Z,92.88
2019-02-27T01:14:57.675Z,92.98
2019-02-27T01:15:57.606Z,92.98
2019-02-27T01:16:57.661Z,92.92
2019-02-27T01:17:58.174Z,92.46
2019-02-27T01:18:57.676Z,92.67
2019-02-27T01:19:57.578Z,93.51
2019-02-27T01:20:57.587Z,92.73
2019-02-27T01:21:57.540Z,92.52
2019-02-27T01:22:57.600Z,92.42
2019-02-27T01:23:57.520Z,92.31
2019-02-27T01:24:57.645Z,91.75
2019-02-27T01:25:57.509Z,91.37
2019-02-27T01:26:57.526Z,91.27
2019-02-27T01:27:57.477Z,90.11
2019-02-27T01:28:57.544Z,89.70
2019-02-27T01:29:57.472Z,90.16
2019-02-27T01:30:57.557Z,90.58
2019-02-27T01:31:57.639Z,90.11
2019-02-27T01:33:12.418Z,90.16
2019-02-27T01:33:57.414Z,90.26
2019-02-27T01:34:57.626Z,90.36
2019-02-27T01:35:57.397Z,90.41
2019-02-27T01:36:58.634Z,91.31
2019-02-27T01:37:57.378Z,91.56
2019-02-27T01:38:57.406Z,91.35
2019-02-27T01:39:57.351Z,91.66
2019-02-27T01:40:57.451Z,91.56
2019-02-27T01:41:57.977Z,91.87
2019-02-27T01:42:57.431Z,92.08
2019-02-27T01:43:57.310Z,92.19
2019-02-27T01:44:57.342Z,92.76
2019-02-27T01:45:57.303Z,92.96
2019-02-27T01:47:01.521Z,92.54
2019-02-27T01:47:57.265Z,93.38
2019-02-27T01:48:57.372Z,92.76
2019-02-27T01:49:57.245Z,93.59
2019-02-27T01:50:57.308Z,93.80
2019-02-27T01:52:01.197Z,93.49
2019-02-27T01:52:57.297Z,94.12
2019-02-27T01:53:57.205Z,94.22
2019-02-27T01:54:57.322Z,94.32
2019-02-27T01:55:57.197Z,93.38
2019-02-27T01:56:57.223Z,93.59
2019-02-27T01:57:57.160Z,93.38
2019-02-27T01:58:57.233Z,93.59
2019-02-27T01:59:57.139Z,93.21
2019-02-27T02:00:57.174Z,93.11
2019-02-27T02:01:57.118Z,93.70
2019-02-27T02:02:57.159Z,93.70
2019-02-27T02:03:57.098Z,93.53
2019-02-27T02:04:57.172Z,94.26
2019-02-27T02:05:59.307Z,94.26
2019-02-27T02:06:57.082Z,94.79
2019-02-27T02:07:57.057Z,94.37
2019-02-27T02:08:57.095Z,94.85
2019-02-27T02:09:57.035Z,95.27
2019-02-27T02:10:58.880Z,95.58
2019-02-27T02:11:57.012Z,95.79
2019-02-27T02:12:57.020Z,95.58
2019-02-27T02:13:56.992Z,95.54
2019-02-27T02:14:57.033Z,94.95
2019-02-27T02:15:58.177Z,94.95
2019-02-27T02:16:57.047Z,94.64
2019-02-27T02:17:56.950Z,94.60
2019-02-27T02:18:56.958Z,95.01
2019-02-27T02:19:56.928Z,94.13
2019-02-27T02:21:00.867Z,93.40
2019-02-27T02:21:56.909Z,93.65
2019-02-27T02:22:56.985Z,93.97
2019-02-27T02:23:56.887Z,93.34
2019-02-27T02:24:56.896Z,92.96
2019-02-27T02:26:01.110Z,93.44
2019-02-27T02:26:56.910Z,93.38
2019-02-27T02:27:56.843Z,93.32
2019-02-27T02:28:56.923Z,93.07
2019-02-27T02:29:56.825Z,93.70
2019-02-27T02:30:56.861Z,93.59
2019-02-27T02:31:56.803Z,93.91
2019-02-27T02:32:56.850Z,93.80
2019-02-27T02:33:56.782Z,93.74
2019-02-27T02:34:56.865Z,93.53
2019-02-27T02:35:56.764Z,93.74
2019-02-27T02:37:01.245Z,93.53
2019-02-27T02:37:57.738Z,94.16
2019-02-27T02:38:56.787Z,94.89
2019-02-27T02:39:56.718Z,94.93
2019-02-27T02:40:56.802Z,95.00
2019-02-27T02:41:56.711Z,94.68
2019-02-27T02:42:59.104Z,95.00
2019-02-27T02:43:57.674Z,94.83
2019-02-27T02:44:57.516Z,95.67
2019-02-27T02:45:56.655Z,95.67
2019-02-27T02:46:56.766Z,95.98
2019-02-27T02:47:56.856Z,95.67
2019-02-27T02:48:56.653Z,95.98
2019-02-27T02:49:56.613Z,95.36
2019-02-27T02:50:56.665Z,95.25
2019-02-27T02:51:56.606Z,95.56
2019-02-27T02:52:56.679Z,95.67
2019-02-27T02:54:00.708Z,95.56
2019-02-27T02:54:57.614Z,96.19
2019-02-27T02:55:56.549Z,96.30
2019-02-27T02:57:00.192Z,95.98
2019-02-27T02:57:56.530Z,96.09
2019-02-27T02:58:56.621Z,95.50
2019-02-27T02:59:59.535Z,96.03
2019-02-27T03:00:56.539Z,95.67
2019-02-27T03:01:56.500Z,96.30
2019-02-27T03:02:57.478Z,96.09
2019-02-27T03:03:56.466Z,96.19
2019-02-27T03:04:56.556Z,96.13
2019-02-27T03:05:59.773Z,96.45
2019-02-27T03:06:56.495Z,96.51
2019-02-27T03:07:56.423Z,97.18
2019-02-27T03:08:58.528Z,96.83
2019-02-27T03:09:56.400Z,97.14
2019-02-27T03:11:04.482Z,96.72
2019-02-27T03:11:56.410Z,96.78
2019-02-27T03:12:56.414Z,96.89
2019-02-27T03:13:56.361Z,96.47
2019-02-27T03:14:56.420Z,97.20
2019-02-27T03:15:56.338Z,96.99
2019-02-27T03:16:56.360Z,96.83
2019-02-27T03:17:56.321Z,96.57
2019-02-27T03:18:56.347Z,96.30
2019-02-27T03:19:56.297Z,95.94
2019-02-27T03:20:56.359Z,96.25
2019-02-27T03:21:56.316Z,95.98
2019-02-27T03:22:56.411Z,95.73
2019-02-27T03:23:56.255Z,95.36
2019-02-27T03:24:56.283Z,95.15
2019-02-27T03:25:56.234Z,95.29
2019-02-27T03:26:56.299Z,95.67
2019-02-27T03:27:56.230Z,95.72
2019-02-27T03:28:56.312Z,96.13
2019-02-27T03:29:56.197Z,96.03
2019-02-27T03:30:56.244Z,96.24
2019-02-27T03:32:00.001Z,96.24
2019-02-27T03:32:56.265Z,96.55
2019-02-27T03:34:05.478Z,96.24
2019-02-27T03:34:57.139Z,96.13
2019-02-27T03:35:56.156Z,95.82
2019-02-27T03:36:56.116Z,96.97
2019-02-27T03:37:56.194Z,97.18
2019-02-27T03:38:59.106Z,96.51
2019-02-27T03:39:56.181Z,97.08
2019-02-27T03:40:56.078Z,96.87
2019-02-27T03:41:59.419Z,96.45
2019-02-27T03:42:56.068Z,96.55
2019-02-27T03:43:56.106Z,96.34
2019-02-27T03:44:57.116Z,96.18
2019-02-27T03:45:56.121Z,95.76
2019-02-27T03:46:56.068Z,96.22
2019-02-27T03:47:56.062Z,95.90
2019-02-27T03:48:55.991Z,95.90
2019-02-27T03:49:56.046Z,95.90
2019-02-27T03:50:55.971Z,96.12
2019-02-27T03:52:00.122Z,96.53
2019-02-27T03:52:55.968Z,97.17
2019-02-27T03:53:55.971Z,97.02
2019-02-27T03:54:58.008Z,97.06
2019-02-27T03:55:55.984Z,97.17
2019-02-27T03:56:55.907Z,96.95
2019-02-27T03:57:59.405Z,97.11
2019-02-27T03:58:55.885Z,97.58
2019-02-27T04:00:03.900Z,97.38
2019-02-27T04:00:55.873Z,97.38
2019-02-27T04:02:05.801Z,97.90
2019-02-27T04:02:55.859Z,97.80
2019-02-27T04:03:56.898Z,97.58
2019-02-27T04:04:55.823Z,97.80
2019-02-27T04:05:55.848Z,97.90
2019-02-27T04:06:56.418Z,97.42
2019-02-27T04:07:55.890Z,97.69
2019-02-27T04:08:55.780Z,97.69
2019-02-27T04:09:56.425Z,97.63
2019-02-27T04:10:55.767Z,97.53
2019-02-27T04:11:55.788Z,97.42
2019-02-27T04:12:55.760Z,97.53
2019-02-27T04:14:03.031Z,97.53
2019-02-27T04:14:56.719Z,97.74
2019-02-27T04:15:55.816Z,98.05
2019-02-27T04:16:55.699Z,98.05
2019-02-27T04:17:55.753Z,98.89
2019-02-27T04:18:55.680Z,98.64
2019-02-27T04:19:55.742Z,98.53
2019-02-27T04:20:55.654Z,98.74
2019-02-27T04:22:00.633Z,99.16
2019-02-27T04:22:56.647Z,98.85
2019-02-27T04:23:55.667Z,98.64
2019-02-27T04:24:56.844Z,99.05
2019-02-27T04:25:55.679Z,99.16
2019-02-27T04:26:55.593Z,99.00
2019-02-27T04:27:56.374Z,99.48
2019-02-27T04:28:55.573Z,99.05
2019-02-27T04:29:55.610Z,99.48
2019-02-27T04:30:55.553Z,98.53
2019-02-27T04:31:55.669Z,99.05
2019-02-27T04:32:55.548Z,98.95
2019-02-27T04:33:59.591Z,99.31
2019-02-27T04:34:55.508Z,99.37
2019-02-27T04:35:55.547Z,99.31
2019-02-27T04:36:55.487Z,99.27
2019-02-27T04:37:55.559Z,99.16
2019-02-27T04:38:55.485Z,99.27
2019-02-27T04:39:55.469Z,99.16
2019-02-27T04:40:55.468Z,99.48
2019-02-27T04:41:55.481Z,99.31
2019-02-27T04:42:57.053Z,99.21
2019-02-27T04:43:58.902Z,98.79
2019-02-27T04:44:55.402Z,98.83
2019-02-27T04:46:02.472Z,98.68
2019-02-27T04:46:55.622Z,99.15
2019-02-27T04:48:02.384Z,98.68
2019-02-27T04:48:55.378Z,99.21
2019-02-27T04:49:57.382Z,99.10
2019-02-27T04:50:55.343Z,99.90
2019-02-27T04:51:55.347Z,99.16
2019-02-27T04:52:57.656Z,99.16
2019-02-27T04:53:55.389Z,99.90
2019-02-27T04:54:55.302Z,99.58
2019-02-27T04:55:55.371Z,99.48
2019-02-27T04:56:57.617Z,99.69
2019-02-27T04:57:55.283Z,99.58
2019-02-27T04:58:55.279Z,99.58
2019-02-27T04:59:55.297Z,99.79
2019-02-27T05:00:58.909Z,99.69
2019-02-27T05:01:55.311Z,99.79
2019-02-27T05:02:55.219Z,99.79
2019-02-27T05:03:55.253Z,99.79
2019-02-27T05:04:55.241Z,99.48
2019-02-27T05:05:55.251Z,99.79
2019-02-27T05:06:55.171Z,99.90
2019-02-27T05:07:55.251Z,99.41
2019-02-27T05:08:55.167Z,99.21
2019-02-27T05:09:55.162Z,99.10
2019-02-27T05:10:55.129Z,99.21
2019-02-27T05:11:55.183Z,99.00
2019-02-27T05:12:55.110Z,98.83
2019-02-27T05:13:55.216Z,98.94
2019-02-27T05:14:55.092Z,98.94
2019-02-27T05:15:55.100Z,99.15
2019-02-27T05:16:55.073Z,98.83
2019-02-27T05:17:55.604Z,99.36
2019-02-27T05:18:55.061Z,98.89
2019-02-27T05:19:55.128Z,99.25
2019-02-27T05:20:55.026Z,99.88
2019-02-27T05:21:55.041Z,99.46
2019-02-27T05:22:55.005Z,99.84
2019-02-27T05:23:55.094Z,99.99
2019-02-27T05:24:54.986Z,99.99
2019-02-27T05:25:55.069Z,99.99
2019-02-27T05:26:54.965Z,99.95
2019-02-27T05:27:54.979Z,99.84
2019-02-27T05:28:54.941Z,99.52
2019-02-27T05:29:55.017Z,99.52
2019-02-27T05:30:54.923Z,99.52
2019-02-27T05:31:55.006Z,99.73
2019-02-27T05:32:54.900Z,99.73
2019-02-27T05:33:56.965Z,99.90
2019-02-27T05:34:54.898Z,99.95
2019-02-27T05:36:09.884Z,99.95
2019-02-27T05:36:54.859Z,98.95
2019-02-27T05:37:55.890Z,99.52
2019-02-27T05:38:54.838Z,98.95
2019-02-27T05:39:54.882Z,99.41
2019-02-27T05:40:54.814Z,98.79
2019-02-27T05:41:54.868Z,99.10
2019-02-27T05:42:54.795Z,98.89
2019-02-27T05:43:54.882Z,99.31
2019-02-27T05:44:55.878Z,99.00
2019-02-27T05:45:54.794Z,99.00
2019-02-27T05:46:54.752Z,99.21
2019-02-27T05:47:54.807Z,99.00
2019-02-27T05:48:54.736Z,98.95
2019-02-27T05:49:54.849Z,99.10
2019-02-27T05:50:54.721Z,98.85
2019-02-27T05:51:54.737Z,99.16
2019-02-27T05:52:54.693Z,98.64
2019-02-27T05:53:56.086Z,99.31
2019-02-27T05:54:54.683Z,99.10
2019-02-27T05:55:54.761Z,98.79
2019-02-27T05:56:54.646Z,99.10
2019-02-27T05:57:54.674Z,99.04
2019-02-27T05:58:56.267Z,98.83
2019-02-27T05:59:54.718Z,99.57
2019-02-27T06:00:54.606Z,99.57
2019-02-27T06:01:54.701Z,99.15
2019-02-27T06:02:54.586Z,99.57
2019-02-27T06:03:54.612Z,99.67
2019-02-27T06:04:56.124Z,99.67
2019-02-27T06:05:54.634Z,99.95
2019-02-27T06:06:54.545Z,99.99
2019-02-27T06:07:54.639Z,99.99
2019-02-27T06:08:54.521Z,99.99
2019-02-27T06:09:54.603Z,99.99
2019-02-27T06:10:56.078Z,99.99
2019-02-27T06:11:54.566Z,99.99
2019-02-27T06:12:54.480Z,99.99
2019-02-27T06:13:54.580Z,99.99
2019-02-27T06:14:54.997Z,99.52
2019-02-27T06:15:54.488Z,99.73
2019-02-27T06:16:54.437Z,99.25
2019-02-27T06:17:54.502Z,98.89
2019-02-27T06:18:56.291Z,99.04
2019-02-27T06:19:56.490Z,99.00
2019-02-27T06:20:54.398Z,99.25
2019-02-27T06:21:56.887Z,99.36
2019-02-27T06:22:54.375Z,99.46
2019-02-27T06:23:54.442Z,99.36
2019-02-27T06:24:54.371Z,99.25
2019-02-27T06:25:59.129Z,99.15
2019-02-27T06:26:54.350Z,99.10
2019-02-27T06:27:54.367Z,99.31
2019-02-27T06:28:54.311Z,99.99
2019-02-27T06:29:56.839Z,99.90
2019-02-27T06:30:54.293Z,99.84
2019-02-27T06:31:54.397Z,99.84
2019-02-27T06:32:54.269Z,99.58
2019-02-27T06:33:54.308Z,99.69
2019-02-27T06:34:54.262Z,99.84
2019-02-27T06:35:54.322Z,99.79
2019-02-27T06:36:54.232Z,99.99
2019-02-27T06:37:54.334Z,99.99
2019-02-27T06:38:54.206Z,99.80
2019-02-27T06:39:54.271Z,99.34
2019-02-27T06:40:54.186Z,99.40
2019-02-27T06:41:54.257Z,98.88
2019-02-27T06:42:54.794Z,98.46
2019-02-27T06:43:54.276Z,98.72
2019-02-27T06:44:54.173Z,97.42
2019-02-27T06:45:54.364Z,96.65
2019-02-27T06:46:54.714Z,96.96
2019-02-27T06:47:54.204Z,95.76
2019-02-27T06:48:54.103Z,95.83
2019-02-27T06:49:54.128Z,94.32
2019-02-27T06:50:54.098Z,94.70
2019-02-27T06:51:54.123Z,94.49
2019-02-27T06:52:54.058Z,93.92
2019-02-27T06:53:54.139Z,93.35
2019-02-27T06:54:54.042Z,92.69
2019-02-27T06:55:54.073Z,92.27
2019-02-27T06:56:54.073Z,90.81
2019-02-27T06:57:54.061Z,89.68
2019-02-27T06:58:53.996Z,88.95
2019-02-27T06:59:54.074Z,87.76
2019-02-27T07:00:53.989Z,87.16
2019-02-27T07:01:53.986Z,86.81
2019-02-27T07:02:55.510Z,84.31
2019-02-27T07:03:54.000Z,82.30
2019-02-27T07:04:53.929Z,82.51
2019-02-27T07:05:53.940Z,80.66
2019-02-27T07:06:55.521Z,79.69
2019-02-27T07:07:53.923Z,79.51
2019-02-27T07:08:53.898Z,79.72
2019-02-27T07:09:55.987Z,77.47
2019-02-27T07:10:57.622Z,73.74
2019-02-27T07:11:54.872Z,72.91
2019-02-27T07:12:54.809Z,73.53
2019-02-27T07:13:53.861Z,72.15
2019-02-27T07:14:53.836Z,71.46
2019-02-27T07:15:55.615Z,69.12
2019-02-27T07:16:57.173Z,68.91
2019-02-27T07:17:54.812Z,70.12
2019-02-27T07:18:53.811Z,69.47
2019-02-27T07:19:53.800Z,67.75
2019-02-27T07:20:55.753Z,65.66
2019-02-27T07:21:53.819Z,63.79
2019-02-27T07:22:53.737Z,62.76
2019-02-27T07:23:57.705Z,62.66
2019-02-27T07:24:53.712Z,61.70
2019-02-27T07:25:53.766Z,61.29
2019-02-27T07:26:53.690Z,60.95
2019-02-27T07:27:53.886Z,60.10
2019-02-27T07:28:53.669Z,59.14
2019-02-27T07:29:53.767Z,59.74
2019-02-27T07:30:53.660Z,58.70
2019-02-27T07:31:53.681Z,58.47
2019-02-27T07:32:53.656Z,58.47
2019-02-27T07:33:53.691Z,57.39
2019-02-27T07:34:53.600Z,56.26
2019-02-27T07:35:53.641Z,56.74
2019-02-27T07:36:53.586Z,57.75
2019-02-27T07:37:53.630Z,58.03
2019-02-27T07:38:54.340Z,55.66
2019-02-27T07:39:53.632Z,54.74
2019-02-27T07:40:53.552Z,56.49
2019-02-27T07:41:53.544Z,54.77
2019-02-27T07:42:53.529Z,53.94
2019-02-27T07:43:53.557Z,55.18
2019-02-27T07:44:53.490Z,55.05
2019-02-27T07:45:54.378Z,54.23
2019-02-27T07:46:57.160Z,54.13
2019-02-27T07:47:53.583Z,53.81
2019-02-27T07:48:56.264Z,55.18
2019-02-27T07:49:53.496Z,54.95
2019-02-27T07:50:53.441Z,54.33
2019-02-27T07:51:57.113Z,54.43
2019-02-27T07:52:53.403Z,54.77
2019-02-27T07:53:53.880Z,55.93
2019-02-27T07:54:54.472Z,56.00
2019-02-27T07:55:55.075Z,55.18
2019-02-27T07:56:53.360Z,55.18
2019-02-27T07:57:58.310Z,54.77
2019-02-27T07:58:54.338Z,55.95
2019-02-27T07:59:53.357Z,55.02
2019-02-27T08:00:53.335Z,54.79
2019-02-27T08:01:53.373Z,56.02
2019-02-27T08:02:53.295Z,56.18
2019-02-27T08:03:54.308Z,53.69
2019-02-27T08:04:54.727Z,52.69
2019-02-27T08:05:53.333Z,54.25
2019-02-27T08:06:53.269Z,55.08
2019-02-27T08:07:53.315Z,53.36
2019-02-27T08:08:56.910Z,53.17
2019-02-27T08:09:53.329Z,53.25
2019-02-27T08:10:53.251Z,52.72
2019-02-27T08:11:53.241Z,52.26
2019-02-27T08:12:55.750Z,51.10
2019-02-27T08:13:53.254Z,50.80
2019-02-27T08:14:53.177Z,50.55
2019-02-27T08:15:53.268Z,49.52
2019-02-27T08:16:57.114Z,49.63
2019-02-27T08:17:57.621Z,51.14
2019-02-27T08:18:54.128Z,48.97
2019-02-27T08:19:53.197Z,47.53
2019-02-27T08:20:54.515Z,46.70
2019-02-27T08:21:53.242Z,47.72
2019-02-27T08:22:53.097Z,48.39
2019-02-27T08:23:54.966Z,46.92
2019-02-27T08:24:53.062Z,44.02
2019-02-27T08:25:53.134Z,45.22
2019-02-27T08:26:53.057Z,45.61
2019-02-27T08:27:54.254Z,46.34
2019-02-27T08:28:53.019Z,45.84
2019-02-27T08:29:53.058Z,46.25
2019-02-27T08:30:52.997Z,46.22
2019-02-27T08:31:53.103Z,44.67
2019-02-27T08:32:53.009Z,44.24
2019-02-27T08:33:53.085Z,45.24
2019-02-27T08:34:52.979Z,44.14
2019-02-27T08:35:53.098Z,42.98
2019-02-27T08:36:52.979Z,41.84
2019-02-27T08:38:01.898Z,42.30
2019-02-27T08:38:53.952Z,45.39
2019-02-27T08:39:59.884Z,46.10
2019-02-27T08:40:57.511Z,44.20
2019-02-27T08:41:53.989Z,42.63
2019-02-27T08:42:52.866Z,41.47
2019-02-27T08:43:53.984Z,41.01
2019-02-27T08:44:52.844Z,40.09
2019-02-27T08:45:52.859Z,39.55
2019-02-27T08:46:52.835Z,37.49
2019-02-27T08:47:52.873Z,38.12
2019-02-27T08:48:52.800Z,37.42
2019-02-27T08:49:57.573Z,37.95
2019-02-27T08:50:53.782Z,38.76
2019-02-27T08:51:52.829Z,38.76
2019-02-27T08:52:52.761Z,39.04
2019-02-27T08:53:52.813Z,38.21
2019-02-27T08:54:52.734Z,40.26
2019-02-27T08:55:52.825Z,38.70
2019-02-27T08:56:52.727Z,38.16
2019-02-27T08:57:55.580Z,37.32
2019-02-27T08:58:52.703Z,36.99
2019-02-27T08:59:52.750Z,37.67
2019-02-27T09:00:52.670Z,38.28
2019-02-27T09:01:55.400Z,37.38
2019-02-27T09:02:52.651Z,38.74
2019-02-27T09:03:53.719Z,39.62
2019-02-27T09:04:53.764Z,37.77
2019-02-27T09:05:53.682Z,37.62
2019-02-27T09:06:52.621Z,38.84
2019-02-27T09:07:52.724Z,39.96
2019-02-27T09:08:52.584Z,40.56
2019-02-27T09:09:52.615Z,38.42
2019-02-27T09:10:52.572Z,38.91
2019-02-27T09:11:52.660Z,37.57
2019-02-27T09:12:52.541Z,40.08
2019-02-27T09:13:52.642Z,37.78
2019-02-27T09:14:52.520Z,38.88
2019-02-27T09:15:52.556Z,37.91
2019-02-27T09:16:52.514Z,37.07
2019-02-27T09:17:52.567Z,37.15
2019-02-27T09:18:52.480Z,36.63
2019-02-27T09:19:52.478Z,35.70
2019-02-27T09:20:53.530Z,35.77
2019-02-27T09:21:52.523Z,34.55
2019-02-27T09:22:52.441Z,34.62
2019-02-27T09:23:52.505Z,34.75
2019-02-27T09:24:52.420Z,36.13
2019-02-27T09:25:57.316Z,34.27
2019-02-27T09:26:53.413Z,35.30
2019-02-27T09:27:52.450Z,39.60
2019-02-27T09:28:52.371Z,37.94
2019-02-27T09:29:54.761Z,38.01
2019-02-27T09:30:52.348Z,36.79
2019-02-27T09:31:52.390Z,36.86
2019-02-27T09:32:52.326Z,35.61
2019-02-27T09:33:53.400Z,37.24
2019-02-27T09:34:52.302Z,35.66
2019-02-27T09:35:52.384Z,35.58
2019-02-27T09:36:52.299Z,35.77
2019-02-27T09:37:52.301Z,35.13
2019-02-27T09:38:52.258Z,37.21
2019-02-27T09:39:52.311Z,36.12
2019-02-27T09:40:52.235Z,36.91
2019-02-27T09:41:52.255Z,34.45
2019-02-27T09:42:53.147Z,34.25
2019-02-27T09:43:52.233Z,34.13
2019-02-27T09:44:52.196Z,34.13
2019-02-27T09:45:52.248Z,34.54
2019-02-27T09:46:52.502Z,33.90
2019-02-27T09:47:52.261Z,33.98
2019-02-27T09:48:52.148Z,34.50
2019-02-27T09:49:52.172Z,33.06
2019-02-27T09:50:53.319Z,32.17
2019-02-27T09:51:55.889Z,32.78
2019-02-27T09:52:52.107Z,31.96
2019-02-27T09:53:52.200Z,31.53
2019-02-27T09:54:52.087Z,31.55
2019-02-27T09:55:54.339Z,29.59
2019-02-27T09:56:52.068Z,29.58
2019-02-27T09:57:52.155Z,27.88
2019-02-27T09:58:52.042Z,27.40
2019-02-27T09:59:53.567Z,27.40
2019-02-27T10:00:52.024Z,27.01
2019-02-27T10:01:52.058Z,28.72
2019-02-27T10:02:52.028Z,27.39
2019-02-27T10:03:54.805Z,26.96
2019-02-27T10:04:51.984Z,26.95
2019-02-27T10:05:52.077Z,27.78
2019-02-27T10:06:51.966Z,27.91
2019-02-27T10:07:52.112Z,27.68
2019-02-27T10:08:51.942Z,26.86
2019-02-27T10:09:53.028Z,28.69
2019-02-27T10:10:51.916Z,29.19
2019-02-27T10:11:52.431Z,30.36
2019-02-27T10:12:51.913Z,27.74
2019-02-27T10:13:52.957Z,27.54
2019-02-27T10:14:51.872Z,28.63
2019-02-27T10:16:01.327Z,28.66
2019-02-27T10:16:51.867Z,29.16
2019-02-27T10:17:51.885Z,28.67
2019-02-27T10:18:54.825Z,30.21
2019-02-27T10:19:51.865Z,28.58
2019-02-27T10:20:51.817Z,28.96
2019-02-27T10:21:51.883Z,30.08
2019-02-27T10:22:53.205Z,29.55
2019-02-27T10:23:51.795Z,29.14
2019-02-27T10:24:51.765Z,28.92
2019-02-27T10:25:51.809Z,28.39
2019-02-27T10:26:53.513Z,28.49
2019-02-27T10:27:51.852Z,28.02
2019-02-27T10:28:51.725Z,30.77
2019-02-27T10:29:51.729Z,29.95
2019-02-27T10:30:51.701Z,28.92
2019-02-27T10:31:51.742Z,28.28
2019-02-27T10:32:51.700Z,27.44
2019-02-27T10:33:51.756Z,26.64
2019-02-27T10:34:53.659Z,27.45
2019-02-27T10:35:51.668Z,26.75
2019-02-27T10:36:51.654Z,28.58
2019-02-27T10:37:54.203Z,28.28
2019-02-27T10:38:51.619Z,27.31
2019-02-27T10:39:51.696Z,29.00
2019-02-27T10:40:51.597Z,28.36
2019-02-27T10:41:51.607Z,28.23
2019-02-27T10:42:51.598Z,28.36
2019-02-27T10:43:53.973Z,28.56
2019-02-27T10:44:51.557Z,29.36
2019-02-27T10:45:51.634Z,29.90
2019-02-27T10:46:52.165Z,29.29
2019-02-27T10:47:51.579Z,31.76
2019-02-27T10:48:51.512Z,31.54
2019-02-27T10:49:51.559Z,32.05
2019-02-27T10:50:51.494Z,30.63
2019-02-27T10:51:51.574Z,30.61
2019-02-27T10:52:51.473Z,30.68
2019-02-27T10:53:51.515Z,31.93
2019-02-27T10:54:51.459Z,32.42
2019-02-27T10:55:53.546Z,31.65
2019-02-27T10:56:51.426Z,29.15
2019-02-27T10:58:00.421Z,30.36
2019-02-27T10:58:51.425Z,31.10
2019-02-27T10:59:51.423Z,30.57
2019-02-27T11:00:51.388Z,31.15
2019-02-27T11:01:57.990Z,30.43
2019-02-27T11:02:52.566Z,29.39
2019-02-27T11:03:54.528Z,29.28
2019-02-27T11:04:51.349Z,29.01
2019-02-27T11:05:54.082Z,30.02
2019-02-27T11:06:51.326Z,31.38
2019-02-27T11:07:53.053Z,31.15
2019-02-27T11:08:51.343Z,31.44
2019-02-27T11:09:51.394Z,30.93
2019-02-27T11:10:51.286Z,30.98
2019-02-27T11:11:53.772Z,29.28
2019-02-27T11:12:51.264Z,29.54
2019-02-27T11:13:51.711Z,28.87
2019-02-27T11:14:51.245Z,29.91
2019-02-27T11:15:51.330Z,30.82
2019-02-27T11:16:51.220Z,29.58
2019-02-27T11:17:51.240Z,29.47
2019-02-27T11:18:51.236Z,30.98
2019-02-27T11:19:51.254Z,31.78
2019-02-27T11:20:51.177Z,30.79
2019-02-27T11:21:51.267Z,31.23
2019-02-27T11:22:51.179Z,31.24
2019-02-27T11:23:51.210Z,32.56
2019-02-27T11:24:52.497Z,30.32
2019-02-27T11:25:56.527Z,30.60
2019-02-27T11:26:52.113Z,28.87
2019-02-27T11:27:51.206Z,28.96
2019-02-27T11:28:51.108Z,29.22
2019-02-27T11:29:51.117Z,28.09
2019-02-27T11:30:51.220Z,27.29
2019-02-27T11:31:51.130Z,29.20
2019-02-27T11:32:51.052Z,28.92
2019-02-27T11:33:51.072Z,30.33
2019-02-27T11:34:51.035Z,30.54
2019-02-27T11:35:51.056Z,29.84
2019-02-27T11:36:51.012Z,30.14
2019-02-27T11:37:51.069Z,31.35
2019-02-27T11:38:51.007Z,32.17
2019-02-27T11:39:51.083Z,32.09
2019-02-27T11:40:50.971Z,31.75
2019-02-27T11:41:50.994Z,29.81
2019-02-27T11:42:50.954Z,30.01
2019-02-27T11:43:53.089Z,30.31
2019-02-27T11:44:50.952Z,29.94
2019-02-27T11:45:57.710Z,28.84
2019-02-27T11:46:58.626Z,29.43
2019-02-27T11:47:59.436Z,30.77
2019-02-27T11:48:50.894Z,29.65
2019-02-27T11:49:52.959Z,28.11
2019-02-27T11:50:50.869Z,28.70
2019-02-27T11:51:53.185Z,30.01
2019-02-27T11:52:50.850Z,29.01
2019-02-27T11:53:50.871Z,29.03
2019-02-27T11:54:50.842Z,29.64
2019-02-27T11:55:50.888Z,28.92
2019-02-27T11:56:51.473Z,28.70
2019-02-27T11:57:50.901Z,29.52
2019-02-27T11:58:50.787Z,29.08
2019-02-27T11:59:50.841Z,28.90
2019-02-27T12:00:50.769Z,29.43
2019-02-27T12:01:55.405Z,29.72
2019-02-27T12:02:51.744Z,29.52
2019-02-27T12:03:50.840Z,30.31
2019-02-27T12:04:53.783Z,30.54
2019-02-27T12:05:51.774Z,29.75
2019-02-27T12:06:50.708Z,30.89
2019-02-27T12:07:51.816Z,30.62
2019-02-27T12:08:50.687Z,30.52
2019-02-27T12:09:50.713Z,30.12
2019-02-27T12:10:50.666Z,30.02
2019-02-27T12:11:50.691Z,30.52
2019-02-27T12:12:50.646Z,30.77
2019-02-27T12:13:50.703Z,30.87
2019-02-27T12:14:50.646Z,31.85
2019-02-27T12:15:50.717Z,30.02
2019-02-27T12:16:51.773Z,29.20
2019-02-27T12:17:50.633Z,29.41
2019-02-27T12:18:50.585Z,29.50
2019-02-27T12:19:51.332Z,28.90
2019-02-27T12:20:53.180Z,29.21
2019-02-27T12:21:50.656Z,29.30
2019-02-27T12:22:50.546Z,28.17
2019-02-27T12:23:50.565Z,28.00
2019-02-27T12:24:52.885Z,29.00
2019-02-27T12:25:50.578Z,28.40
2019-02-27T12:26:50.502Z,28.28
2019-02-27T12:27:50.596Z,28.39
2019-02-27T12:28:52.689Z,28.47
2019-02-27T12:29:50.503Z,29.27
2019-02-27T12:30:50.476Z,30.28
2019-02-27T12:31:52.570Z,29.69
2019-02-27T12:32:50.448Z,29.72
2019-02-27T12:34:02.455Z,30.24
2019-02-27T12:34:50.425Z,29.80
2019-02-27T12:35:50.482Z,28.58
2019-02-27T12:36:52.680Z,29.37
2019-02-27T12:37:50.456Z,28.66
2019-02-27T12:38:50.546Z,28.66
2019-02-27T12:39:51.392Z,30.71
2019-02-27T12:40:50.382Z,30.82
2019-02-27T12:41:50.381Z,30.92
2019-02-27T12:42:50.348Z,30.22
2019-02-27T12:43:52.669Z,29.81
2019-02-27T12:44:53.820Z,31.40
2019-02-27T12:45:50.448Z,31.93
2019-02-27T12:46:50.311Z,30.59
2019-02-27T12:47:50.321Z,31.89
2019-02-27T12:48:50.292Z,29.48
2019-02-27T12:49:51.593Z,29.14
2019-02-27T12:50:50.291Z,28.57
2019-02-27T12:51:50.349Z,28.19
2019-02-27T12:52:50.256Z,28.64